Carbon Cliff, Illinois
Current Conditions -  °F | °C
As of 10:52 PM on Saturday 22 Nov 2014 (Local Time) from KMLI Reporting Station
Overcast Overcast  
Wind Chill: 51°   Ceiling: 1100
Heat Index: 51°   Visibility: 10mi
Dew Point: 47°   Wind: 17mph
Humidity: 86%   Direction: 190°S
Pressure: 29.76"   Gusts: 24mph
Location:  41.49°N, 90.39°W
Report Text: KMLI 230452Z AUTO 19015G21KT 10SM OVC011 11/08 A2976 RMK AO2 SLP077 T01060083 $
Loading
Personal Weather Stations






























Interactive Weather Map New forecast layout! Learn more

10-Day Weather Forecast

Advertisements
Track Severe Weather on mobile